Time;durP1;ratioP1;P1;durP2;ratioP2;P2;SDS_P1;SDS_P2;PMS_P1;PMS_P2;Temp;Humidity;BMP_temperature;BMP_pressure;BME280_temperature;BME280_humidity;BME280_pressure;Samples;Min_cycle;Max_cycle;Signal;HPM_P1;HPM_P2
2021/04/18 00:01:56;;;;;;;16.25;6.60;;;4.20;99.90;;;;;;5093651;28;20028;-47
2021/04/18 00:04:22;;;;;;;12.52;7.35;;;4.10;99.90;;;;;;5093155;28;20024;-48
2021/04/18 00:06:47;;;;;;;13.48;6.97;;;4.10;99.90;;;;;;5093466;28;20032;-49
2021/04/18 00:09:13;;;;;;;14.57;6.35;;;4.10;99.90;;;;;;5092570;28;20371;-49
2021/04/18 00:11:42;;;;;;;13.52;7.13;;;4.00;99.90;;;;;;5091156;28;20032;-47
2021/04/18 00:14:10;;;;;;;15.25;8.00;;;4.00;99.90;;;;;;5073301;28;20025;-53
2021/04/18 00:16:36;;;;;;;15.27;7.22;;;4.00;99.90;;;;;;5072989;28;20032;-49
2021/04/18 00:19:04;;;;;;;12.75;7.00;;;4.00;99.90;;;;;;5072846;28;20403;-49
2021/04/18 00:21:31;;;;;;;14.30;7.25;;;4.00;99.90;;;;;;5072643;28;20028;-49
2021/04/18 00:23:56;;;;;;;15.90;7.15;;;4.00;99.90;;;;;;5072143;28;20028;-47
2021/04/18 00:26:22;;;;;;;15.35;8.52;;;4.00;99.90;;;;;;5072529;28;20100;-48
2021/04/18 00:28:47;;;;;;;13.00;6.32;;;4.00;99.90;;;;;;5073014;28;20033;-46
2021/04/18 00:31:13;;;;;;;11.63;6.47;;;4.00;99.90;;;;;;5074186;28;20039;-48
2021/04/18 00:33:38;;;;;;;14.50;7.47;;;4.00;99.90;;;;;;5093161;28;20059;-47
2021/04/18 00:36:05;;;;;;;11.48;6.78;;;4.00;99.90;;;;;;5092744;28;20059;-49
2021/04/18 00:38:30;;;;;;;16.40;7.25;;;4.10;99.90;;;;;;5091788;28;20112;-48
2021/04/18 00:40:56;;;;;;;12.45;6.88;;;4.10;99.90;;;;;;5092593;28;20442;-46
2021/04/18 00:43:21;;;;;;;15.35;6.20;;;4.00;99.90;;;;;;5092563;28;20028;-47
2021/04/18 00:45:47;;;;;;;13.77;6.82;;;4.00;99.90;;;;;;5092400;28;20176;-46
2021/04/18 00:48:12;;;;;;;12.07;6.68;;;3.90;99.90;;;;;;5092809;28;20028;-47
2021/04/18 00:50:39;;;;;;;10.25;6.63;;;4.00;99.90;;;;;;5090820;28;20032;-47
2021/04/18 00:53:07;;;;;;;12.57;6.63;;;3.90;99.90;;;;;;5091500;28;20069;-46
2021/04/18 00:55:35;;;;;;;14.27;6.38;;;3.80;99.90;;;;;;5092286;28;20058;-47
2021/04/18 00:58:01;;;;;;;16.95;7.50;;;3.90;99.90;;;;;;5092558;28;20020;-47
2021/04/18 01:00:27;;;;;;;10.20;6.28;;;3.80;99.90;;;;;;5091391;28;20035;-47
2021/04/18 01:02:53;;;;;;;12.48;7.38;;;3.80;99.90;;;;;;5092317;28;20048;-50
2021/04/18 01:05:18;;;;;;;16.25;8.25;;;3.80;99.90;;;;;;5061838;28;20457;-46
2021/04/18 01:07:44;;;;;;;11.13;5.70;;;3.80;99.90;;;;;;5052735;28;20483;-47
2021/04/18 01:10:14;;;;;;;15.35;7.25;;;3.80;99.90;;;;;;5053879;28;20029;-47
2021/04/18 01:12:39;;;;;;;13.52;6.68;;;3.80;99.90;;;;;;5053631;28;20039;-48
2021/04/18 01:15:08;;;;;;;14.15;6.88;;;3.90;99.90;;;;;;5053783;28;20029;-47
2021/04/18 01:17:33;;;;;;;11.57;6.68;;;3.90;99.90;;;;;;5053627;28;20041;-47
2021/04/18 01:19:59;;;;;;;12.45;6.53;;;4.00;99.90;;;;;;5053548;28;20105;-48
2021/04/18 01:22:24;;;;;;;14.07;7.47;;;4.00;99.90;;;;;;5053023;28;20079;-49
2021/04/18 01:24:50;;;;;;;16.30;6.68;;;4.00;99.90;;;;;;5052486;28;20025;-48
2021/04/18 01:27:17;;;;;;;12.45;6.97;;;4.00;99.90;;;;;;5053459;28;20025;-47
2021/04/18 01:29:43;;;;;;;13.60;8.20;;;4.00;99.90;;;;;;5056101;28;20512;-47
2021/04/18 01:32:09;;;;;;;11.07;6.85;;;4.00;99.90;;;;;;5073173;28;20017;-47
2021/04/18 01:34:42;;;;;;;14.45;7.07;;;4.00;99.90;;;;;;5073303;28;20039;-49
2021/04/18 01:37:07;;;;;;;13.90;8.10;;;4.10;99.90;;;;;;5072999;28;20020;-47
2021/04/18 01:39:33;;;;;;;9.23;6.15;;;4.10;99.90;;;;;;5072163;28;20036;-47
2021/04/18 01:41:59;;;;;;;10.35;5.85;;;4.10;99.90;;;;;;5073083;28;20460;-48
2021/04/18 01:44:25;;;;;;;15.05;7.20;;;4.10;99.90;;;;;;5073114;28;20063;-47
2021/04/18 01:46:51;;;;;;;13.70;7.63;;;4.10;99.90;;;;;;5072881;28;20089;-47
2021/04/18 01:49:16;;;;;;;14.25;7.10;;;4.00;99.90;;;;;;5073210;28;20032;-49
2021/04/18 01:51:42;;;;;;;12.38;6.32;;;4.00;99.90;;;;;;5061105;28;20040;-47
2021/04/18 01:54:07;;;;;;;12.05;7.40;;;4.00;99.90;;;;;;5052167;28;20029;-47
2021/04/18 01:56:33;;;;;;;11.10;6.95;;;4.00;99.90;;;;;;5052850;28;20061;-47
2021/04/18 01:58:59;;;;;;;10.85;6.32;;;4.00;99.90;;;;;;5053040;28;20456;-48
2021/04/18 02:01:24;;;;;;;14.40;7.10;;;4.00;99.90;;;;;;5052797;28;20033;-50
2021/04/18 02:03:50;;;;;;;15.32;6.68;;;4.10;99.90;;;;;;5052908;28;20052;-48
2021/04/18 02:06:15;;;;;;;11.00;6.63;;;4.00;99.90;;;;;;5052689;28;20380;-49
2021/04/18 02:08:41;;;;;;;12.57;7.10;;;4.00;99.90;;;;;;5051769;28;20044;-49
2021/04/18 02:11:07;;;;;;;11.98;7.60;;;4.00;99.90;;;;;;5052787;28;20021;-48
2021/04/18 02:13:32;;;;;;;13.52;7.03;;;4.00;99.90;;;;;;5052543;28;20029;-47
2021/04/18 02:15:58;;;;;;;13.48;8.07;;;4.00;99.90;;;;;;5052837;28;20028;-48
2021/04/18 02:18:24;;;;;;;15.35;7.22;;;4.10;99.90;;;;;;5052494;28;20025;-48
2021/04/18 02:20:49;;;;;;;14.80;7.53;;;4.20;99.90;;;;;;5052422;28;20036;-49
2021/04/18 02:23:15;;;;;;;14.63;7.35;;;4.20;99.90;;;;;;5051418;28;20031;-47
2021/04/18 02:25:41;;;;;;;16.50;8.23;;;4.30;99.90;;;;;;5052595;28;20025;-48
2021/04/18 02:28:07;;;;;;;11.38;7.72;;;4.30;99.90;;;;;;5052487;28;20029;-49
2021/04/18 02:30:33;;;;;;;16.52;8.35;;;4.30;99.90;;;;;;5061992;28;20110;-47
2021/04/18 02:32:58;;;;;;;17.70;7.93;;;4.30;99.90;;;;;;5072421;28;20028;-48
2021/04/18 02:35:24;;;;;;;14.30;7.97;;;4.30;99.90;;;;;;5072551;28;20396;-47
2021/04/18 02:37:50;;;;;;;14.32;7.25;;;4.30;99.90;;;;;;5071214;28;20032;-47
2021/04/18 02:40:15;;;;;;;11.02;6.25;;;4.30;99.90;;;;;;5072451;28;20111;-46
2021/04/18 02:42:41;;;;;;;13.27;7.07;;;4.30;99.90;;;;;;5072221;28;20025;-48
2021/04/18 02:45:08;;;;;;;16.05;5.78;;;4.20;99.90;;;;;;5072381;28;20013;-52
2021/04/18 02:47:35;;;;;;;12.90;6.80;;;4.20;99.90;;;;;;5072269;28;20025;-47
2021/04/18 02:50:01;;;;;;;12.00;7.25;;;4.10;99.90;;;;;;5072394;28;20021;-47
2021/04/18 02:52:26;;;;;;;9.82;6.85;;;4.10;99.90;;;;;;5054307;28;20108;-48
2021/04/18 02:54:52;;;;;;;12.30;6.38;;;4.00;99.90;;;;;;5051253;28;20029;-47
2021/04/18 02:57:18;;;;;;;12.02;7.57;;;4.00;99.90;;;;;;5052313;28;20021;-48
2021/04/18 02:59:43;;;;;;;12.65;7.20;;;4.00;99.90;;;;;;5052141;28;20033;-47
2021/04/18 03:02:09;;;;;;;13.80;7.50;;;4.00;99.90;;;;;;5052159;28;20029;-47
2021/04/18 03:04:34;;;;;;;11.07;6.57;;;3.90;99.90;;;;;;5052192;28;20113;-47
2021/04/18 03:07:00;;;;;;;12.25;7.40;;;3.90;99.90;;;;;;5051788;28;20074;-49
2021/04/18 03:09:25;;;;;;;16.20;8.05;;;3.90;99.90;;;;;;5051316;28;20075;-48
2021/04/18 03:11:51;;;;;;;14.98;7.03;;;3.90;99.90;;;;;;5051996;28;20036;-47
2021/04/18 03:14:17;;;;;;;10.55;7.15;;;3.90;99.90;;;;;;5051933;28;20068;-47
2021/04/18 03:16:42;;;;;;;12.63;7.05;;;3.90;99.90;;;;;;5051840;28;20036;-47
2021/04/18 03:19:07;;;;;;;16.27;8.73;;;3.90;99.90;;;;;;5051812;28;20032;-47
2021/04/18 03:21:33;;;;;;;14.38;8.05;;;3.90;99.90;;;;;;5051919;28;20025;-47
2021/04/18 03:23:59;;;;;;;14.50;7.25;;;3.90;99.90;;;;;;5054433;28;20079;-48
2021/04/18 03:26:24;;;;;;;13.13;8.48;;;3.90;99.90;;;;;;5055897;28;20033;-47
2021/04/18 03:28:49;;;;;;;24.48;11.07;;;3.90;99.90;;;;;;5055541;28;20061;-49
2021/04/18 03:31:15;;;;;;;23.02;11.73;;;3.90;99.90;;;;;;5071171;28;20199;-47
2021/04/18 03:33:41;;;;;;;21.33;11.77;;;3.90;99.90;;;;;;5075534;28;20028;-48
2021/04/18 03:36:09;;;;;;;24.58;11.43;;;3.90;99.90;;;;;;5075594;28;20035;-51
2021/04/18 03:38:34;;;;;;;24.58;11.70;;;4.00;99.90;;;;;;5074370;28;20078;-47
2021/04/18 03:41:00;;;;;;;28.40;11.95;;;4.00;99.90;;;;;;5074269;28;20028;-48
2021/04/18 03:43:25;;;;;;;26.05;11.10;;;4.00;99.90;;;;;;5075368;28;20472;-47
2021/04/18 03:45:51;;;;;;;23.88;10.57;;;4.00;99.90;;;;;;5075310;28;20048;-46
2021/04/18 03:48:16;;;;;;;32.38;13.80;;;4.00;99.90;;;;;;5075398;28;20040;-47
2021/04/18 03:50:42;;;;;;;30.50;12.70;;;3.90;99.90;;;;;;5072022;28;20064;-48
2021/04/18 03:53:07;;;;;;;24.02;11.05;;;3.90;99.90;;;;;;5054095;28;20048;-49
2021/04/18 03:55:33;;;;;;;29.67;12.93;;;4.00;99.90;;;;;;5055383;28;20112;-47
2021/04/18 03:57:58;;;;;;;46.22;15.43;;;4.00;99.90;;;;;;5053748;28;20325;-48
2021/04/18 04:00:24;;;;;;;36.28;15.55;;;4.10;99.90;;;;;;5053898;28;20082;-46
2021/04/18 04:02:50;;;;;;;39.40;16.52;;;4.10;99.90;;;;;;5054978;28;20113;-47
2021/04/18 04:05:15;;;;;;;38.42;15.38;;;4.20;99.90;;;;;;5054994;28;20412;-47
2021/04/18 04:07:41;;;;;;;31.10;14.00;;;4.30;99.90;;;;;;5054003;28;20036;-46
2021/04/18 04:10:07;;;;;;;33.45;14.50;;;4.40;99.90;;;;;;5054961;28;20044;-49
2021/04/18 04:12:33;;;;;;;34.17;13.10;;;4.50;99.90;;;;;;5054909;28;20029;-47
2021/04/18 04:14:58;;;;;;;40.50;17.45;;;4.60;99.90;;;;;;5054829;28;20025;-47
2021/04/18 04:17:26;;;;;;;40.95;17.65;;;4.60;99.90;;;;;;5054719;28;20036;-46
2021/04/18 04:19:52;;;;;;;40.70;16.13;;;4.70;99.90;;;;;;5054640;28;20025;-50
2021/04/18 04:22:17;;;;;;;52.67;18.27;;;4.80;99.90;;;;;;5054674;28;20083;-49
2021/04/18 04:24:43;;;;;;;48.90;19.38;;;4.90;99.90;;;;;;5053722;28;20364;-49
2021/04/18 04:27:08;;;;;;;40.17;15.55;;;4.90;99.90;;;;;;5053197;28;20032;-47
2021/04/18 04:29:33;;;;;;;44.22;17.15;;;5.00;99.90;;;;;;5061674;28;20035;-47
2021/04/18 04:31:59;;;;;;;45.83;17.83;;;5.10;99.90;;;;;;5072619;28;20036;-47
2021/04/18 04:34:24;;;;;;;52.35;18.05;;;5.10;99.90;;;;;;5071504;28;20029;-47
2021/04/18 04:36:50;;;;;;;45.88;18.92;;;5.10;99.90;;;;;;5072492;28;20024;-47
2021/04/18 04:39:15;;;;;;;38.10;18.30;;;5.20;99.90;;;;;;5071521;28;20035;-47
2021/04/18 04:41:41;;;;;;;40.42;16.13;;;5.20;99.90;;;;;;5072562;28;20039;-48
2021/04/18 04:44:08;;;;;;;40.97;17.02;;;5.20;99.90;;;;;;5072572;28;20083;-50
2021/04/18 04:46:34;;;;;;;37.33;16.08;;;5.30;99.90;;;;;;5072211;28;20491;-48
2021/04/18 04:48:59;;;;;;;31.25;15.38;;;5.30;99.90;;;;;;5072360;28;20036;-50
2021/04/18 04:51:24;;;;;;;39.88;17.63;;;5.40;99.90;;;;;;5074152;28;20364;-47
2021/04/18 04:53:50;;;;;;;41.03;18.13;;;5.40;99.90;;;;;;5091573;28;20457;-48
2021/04/18 04:56:15;;;;;;;38.15;16.63;;;5.40;99.90;;;;;;5092636;28;20035;-49
2021/04/18 04:58:41;;;;;;;76.78;26.20;;;5.40;99.90;;;;;;5092520;28;20064;-49
2021/04/18 05:01:06;;;;;;;49.22;21.38;;;5.50;99.90;;;;;;5092371;28;20030;-48
2021/04/18 05:03:32;;;;;;;39.65;17.75;;;5.50;99.90;;;;;;5074984;28;20028;-46
2021/04/18 05:05:57;;;;;;;36.30;16.60;;;5.50;99.90;;;;;;5071925;28;20047;-46
2021/04/18 05:08:23;;;;;;;47.83;19.27;;;5.60;99.90;;;;;;5071268;28;20028;-48
2021/04/18 05:10:49;;;;;;;42.72;18.85;;;5.60;99.90;;;;;;5071877;28;20024;-47
2021/04/18 05:13:14;;;;;;;47.78;20.13;;;5.70;99.90;;;;;;5071945;28;20407;-49
2021/04/18 05:15:40;;;;;;;40.13;17.33;;;5.70;99.90;;;;;;5072124;28;20052;-51
2021/04/18 05:18:06;;;;;;;41.03;18.15;;;5.70;99.90;;;;;;5071807;28;20032;-46
2021/04/18 05:20:31;;;;;;;53.63;21.10;;;5.70;99.90;;;;;;5071757;28;20020;-46
2021/04/18 05:22:57;;;;;;;45.30;19.77;;;5.80;99.90;;;;;;5070518;28;20407;-48
2021/04/18 05:25:23;;;;;;;50.85;20.65;;;5.80;99.90;;;;;;5071814;28;20036;-50
2021/04/18 05:27:49;;;;;;;45.63;20.90;;;5.80;99.90;;;;;;5071390;28;20032;-47
2021/04/18 05:30:15;;;;;;;53.90;20.83;;;5.90;99.90;;;;;;5071708;28;20028;-47
2021/04/18 05:32:40;;;;;;;53.17;22.00;;;5.90;99.90;;;;;;5071655;28;20056;-49
2021/04/18 05:35:06;;;;;;;47.05;19.73;;;5.90;99.90;;;;;;5071363;28;20484;-50
2021/04/18 05:37:32;;;;;;;45.85;18.88;;;5.90;99.90;;;;;;5070541;28;20054;-48
2021/04/18 05:39:57;;;;;;;44.05;21.10;;;6.00;99.90;;;;;;5069881;28;20024;-48
2021/04/18 05:42:23;;;;;;;47.45;21.63;;;6.00;99.90;;;;;;5071338;28;20056;-47
2021/04/18 05:44:49;;;;;;;48.78;21.35;;;6.00;99.90;;;;;;5070992;28;20017;-48
2021/04/18 05:47:14;;;;;;;48.38;20.35;;;6.10;99.90;;;;;;5071101;28;20064;-50
2021/04/18 05:49:40;;;;;;;39.85;18.00;;;6.10;99.90;;;;;;5071218;28;20107;-48
2021/04/18 05:52:06;;;;;;;44.13;17.85;;;6.20;99.90;;;;;;5073106;28;20024;-50
2021/04/18 05:54:31;;;;;;;44.70;19.85;;;6.20;99.90;;;;;;5090516;28;20026;-49
2021/04/18 05:56:57;;;;;;;47.30;20.90;;;6.30;99.90;;;;;;5091009;28;20107;-49
2021/04/18 05:59:22;;;;;;;38.92;19.13;;;6.30;99.90;;;;;;5091347;28;20032;-47
2021/04/18 06:01:48;;;;;;;44.65;19.58;;;6.40;99.90;;;;;;5091128;28;20028;-50
2021/04/18 06:04:13;;;;;;;39.63;18.30;;;6.40;99.90;;;;;;5090936;28;20031;-50
2021/04/18 06:06:39;;;;;;;45.58;21.48;;;6.40;99.90;;;;;;5091284;28;20380;-49
2021/04/18 06:09:04;;;;;;;44.05;18.83;;;6.40;99.90;;;;;;5090232;28;20073;-48
2021/04/18 06:11:30;;;;;;;45.15;20.85;;;6.40;99.90;;;;;;5091417;28;20498;-47
2021/04/18 06:13:55;;;;;;;51.78;23.52;;;6.40;99.90;;;;;;5090901;28;20028;-49
2021/04/18 06:16:21;;;;;;;38.67;18.85;;;6.40;99.90;;;;;;5091007;28;20510;-49
2021/04/18 06:18:47;;;;;;;43.70;20.52;;;6.40;99.90;;;;;;5090907;28;20055;-51
2021/04/18 06:21:13;;;;;;;40.22;17.73;;;6.40;99.90;;;;;;5090742;28;20035;-50
2021/04/18 06:23:38;;;;;;;41.40;19.70;;;6.40;99.90;;;;;;5153034;22;20182;-52
2021/04/18 06:26:04;;;;;;;44.08;19.52;;;6.50;99.90;;;;;;5070801;28;20056;-48
2021/04/18 06:28:30;;;;;;;39.97;18.02;;;6.50;99.90;;;;;;5070649;28;20032;-50
2021/04/18 06:30:55;;;;;;;41.42;18.80;;;6.60;99.90;;;;;;5085001;28;20024;-47
2021/04/18 06:33:21;;;;;;;34.60;16.27;;;6.60;99.90;;;;;;5090673;28;20054;-55
2021/04/18 06:35:46;;;;;;;34.95;18.50;;;6.60;99.90;;;;;;5089059;28;20052;-49
2021/04/18 06:38:12;;;;;;;32.72;16.75;;;6.70;99.90;;;;;;5069769;28;20040;-50
2021/04/18 06:40:39;;;;;;;31.13;16.67;;;6.70;99.90;;;;;;5070608;28;20336;-49
2021/04/18 06:43:07;;;;;;;35.75;18.83;;;6.70;99.90;;;;;;5070506;28;20024;-48
2021/04/18 06:45:33;;;;;;;36.22;17.42;;;6.70;99.90;;;;;;5070593;28;20040;-52
2021/04/18 06:48:03;;;;;;;37.38;20.05;;;6.80;99.90;;;;;;5066725;28;20021;-47
2021/04/18 06:50:29;;;;;;;33.08;16.63;;;6.80;99.90;;;;;;5071635;28;20033;-48
2021/04/18 06:52:54;;;;;;;40.75;19.27;;;6.80;99.90;;;;;;5089435;28;20070;-53
2021/04/18 06:55:20;;;;;;;35.70;19.33;;;6.80;99.90;;;;;;5090371;28;20038;-49
2021/04/18 06:57:46;;;;;;;40.78;19.88;;;6.80;99.90;;;;;;5092224;28;20016;-49
2021/04/18 07:00:13;;;;;;;42.55;20.33;;;6.80;99.90;;;;;;5080084;28;20071;-49
2021/04/18 07:02:39;;;;;;;33.35;17.27;;;6.80;99.90;;;;;;5061043;28;20029;-52
2021/04/18 07:05:11;;;;;;;33.60;18.20;;;6.80;99.90;;;;;;5083721;28;20483;-48
2021/04/18 07:07:42;;;;;;;36.22;18.48;;;6.80;99.90;;;;;;5093605;28;20016;-49
2021/04/18 07:10:13;;;;;;;26.00;14.15;;;6.70;99.90;;;;;;5094273;28;20063;-48
2021/04/18 07:12:40;;;;;;;28.92;14.88;;;6.70;99.90;;;;;;5094540;28;20024;-52
2021/04/18 07:15:07;;;;;;;29.92;15.27;;;6.70;99.90;;;;;;5094048;28;20024;-48
2021/04/18 07:17:32;;;;;;;27.23;14.88;;;6.70;99.90;;;;;;5094643;28;20058;-47
2021/04/18 07:20:17;;;;;;;22.92;13.25;;;6.70;99.90;;;;;;5094134;28;20031;-51
2021/04/18 07:22:43;;;;;;;23.60;12.20;;;6.70;99.90;;;;;;5082384;28;20467;-50
2021/04/18 07:25:09;;;;;;;22.95;12.98;;;6.80;99.90;;;;;;5073816;28;20085;-50
2021/04/18 07:27:49;;;;;;;23.33;14.18;;;6.80;99.90;;;;;;5073786;28;20070;-52
2021/04/18 07:30:21;;;;;;;27.83;14.18;;;6.90;99.90;;;;;;5073779;28;20024;-48
2021/04/18 07:33:02;;;;;;;26.52;12.57;;;6.90;99.90;;;;;;5073843;28;20033;-51
2021/04/18 07:35:39;;;;;;;25.30;12.95;;;7.00;99.90;;;;;;5073811;28;20060;-47
2021/04/18 07:38:22;;;;;;;23.63;12.20;;;7.00;99.90;;;;;;5072750;28;20118;-48
2021/04/18 07:40:50;;;;;;;23.25;12.77;;;7.00;99.90;;;;;;5073785;28;20044;-52
2021/04/18 07:43:18;;;;;;;26.05;12.18;;;7.00;99.90;;;;;;5073461;28;20035;-48
2021/04/18 07:45:44;;;;;;;22.08;12.02;;;7.10;99.90;;;;;;5073645;28;20086;-51
2021/04/18 07:48:13;;;;;;;22.50;12.63;;;7.10;99.90;;;;;;5073631;28;20472;-50
2021/04/18 07:50:39;;;;;;;24.77;13.32;;;7.10;99.90;;;;;;5073355;28;20028;-52
2021/04/18 07:53:06;;;;;;;23.40;12.73;;;7.10;99.90;;;;;;5084918;28;20069;-49
2021/04/18 07:55:33;;;;;;;21.20;11.77;;;7.20;99.90;;;;;;5093615;28;20200;-52
2021/04/18 07:57:58;;;;;;;31.95;17.30;;;7.40;99.90;;;;;;5093841;28;20035;-53
2021/04/18 08:00:24;;;;;;;27.35;15.43;;;7.40;99.90;;;;;;5093193;28;20021;-53
2021/04/18 08:02:51;;;;;;;31.38;16.00;;;7.50;99.90;;;;;;5093746;28;20383;-50
2021/04/18 08:05:19;;;;;;;29.83;15.05;;;7.60;99.90;;;;;;5093115;28;20032;-53
2021/04/18 08:08:07;;;;;;;24.77;13.98;;;7.60;99.90;;;;;;5092421;28;20079;-49
2021/04/18 08:10:39;;;;;;;28.98;15.25;;;7.70;99.90;;;;;;5093468;28;20414;-52
2021/04/18 08:13:20;;;;;;;32.20;18.92;;;7.80;99.90;;;;;;5076914;28;20074;-52
2021/04/18 08:15:46;;;;;;;33.38;16.95;;;7.80;99.90;;;;;;5073127;28;20151;-51
2021/04/18 08:18:14;;;;;;;31.05;15.73;;;7.80;99.90;;;;;;5072929;28;20112;-49
2021/04/18 08:20:42;;;;;;;27.75;15.50;;;7.90;99.90;;;;;;5073120;28;20020;-51
2021/04/18 08:23:17;;;;;;;27.10;14.60;;;7.90;99.90;;;;;;5071786;28;20037;-51
2021/04/18 08:26:04;;;;;;;26.90;15.35;;;7.90;99.90;;;;;;5072977;28;20020;-52
2021/04/18 08:28:32;;;;;;;27.70;16.77;;;7.90;99.90;;;;;;5069681;28;20091;-49
2021/04/18 08:31:05;;;;;;;29.33;16.98;;;7.80;99.90;;;;;;5072468;28;20226;-49
2021/04/18 08:33:41;;;;;;;28.02;15.27;;;7.70;99.90;;;;;;5072652;28;20024;-51
2021/04/18 08:36:20;;;;;;;23.63;13.57;;;7.70;99.90;;;;;;5072538;28;20546;-48
2021/04/18 08:38:50;;;;;;;28.60;15.98;;;7.60;99.90;;;;;;5071690;28;20398;-49
2021/04/18 08:41:16;;;;;;;22.88;13.43;;;7.60;99.90;;;;;;5072370;28;20056;-51
2021/04/18 08:43:46;;;;;;;21.92;13.68;;;7.50;99.90;;;;;;5072410;28;20370;-50
2021/04/18 08:46:13;;;;;;;20.10;12.13;;;7.50;99.90;;;;;;5072399;28;20025;-52
2021/04/18 08:48:39;;;;;;;27.55;15.15;;;7.60;99.90;;;;;;5072376;28;20024;-49
2021/04/18 08:51:06;;;;;;;25.50;15.55;;;7.70;99.90;;;;;;5072184;28;20035;-53
2021/04/18 08:53:59;;;;;;;23.77;14.27;;;8.00;99.90;;;;;;5079135;28;20017;-49
2021/04/18 08:56:43;;;;;;;21.73;13.52;;;8.30;99.90;;;;;;5069416;28;20063;-51
2021/04/18 08:59:13;;;;;;;13.88;9.95;;;8.50;99.90;;;;;;5072032;28;20052;-52
2021/04/18 09:01:51;;;;;;;16.92;10.60;;;8.70;99.90;;;;;;5065959;28;20507;-52
2021/04/18 09:04:20;;;;;;;14.20;9.70;;;9.00;99.90;;;;;;5092107;28;20032;-53
2021/04/18 09:06:48;;;;;;;15.55;10.52;;;9.20;99.90;;;;;;5092199;28;20025;-54
2021/04/18 09:09:14;;;;;;;16.30;10.38;;;9.40;99.90;;;;;;5091095;28;20020;-53
2021/04/18 09:11:44;;;;;;;19.63;11.77;;;9.60;99.90;;;;;;5092046;28;20028;-54
2021/04/18 09:14:10;;;;;;;13.85;9.10;;;9.80;99.90;;;;;;5091791;28;20064;-51
2021/04/18 09:16:37;;;;;;;15.43;10.05;;;10.10;99.90;;;;;;5090415;28;20032;-49
2021/04/18 09:19:26;;;;;;;15.05;10.13;;;10.40;99.90;;;;;;5091977;28;20031;-52
2021/04/18 09:21:55;;;;;;;15.88;11.40;;;10.80;99.90;;;;;;5061482;28;20017;-50
2021/04/18 09:24:20;;;;;;;16.13;11.73;;;11.30;99.90;;;;;;5070458;28;20123;-49
2021/04/18 09:27:12;;;;;;;14.57;10.50;;;12.00;99.90;;;;;;5071705;28;20112;-54
2021/04/18 09:29:43;;;;;;;14.95;10.75;;;12.60;99.90;;;;;;5071404;28;20098;-51
2021/04/18 09:32:12;;;;;;;14.68;10.02;;;13.00;99.90;;;;;;5071535;28;20028;-53
2021/04/18 09:34:40;;;;;;;11.45;8.90;;;13.40;99.90;;;;;;5071456;28;20016;-53
2021/04/18 09:37:16;;;;;;;12.80;8.30;;;13.70;99.00;;;;;;5084973;28;20016;-50
2021/04/18 09:39:41;;;;;;;10.13;7.32;;;13.80;99.90;;;;;;5090798;28;20036;-52
2021/04/18 09:42:09;;;;;;;10.13;8.30;;;13.90;99.90;;;;;;5091626;28;20026;-52
2021/04/18 09:44:47;;;;;;;10.45;7.68;;;14.00;97.70;;;;;;5091568;28;20064;-55
2021/04/18 09:47:28;;;;;;;13.45;7.65;;;14.00;98.30;;;;;;5091452;28;20021;-50
2021/04/18 09:49:59;;;;;;;11.10;7.07;;;14.40;96.30;;;;;;5091518;28;20024;-51
2021/04/18 09:52:37;;;;;;;11.32;8.30;;;14.50;97.00;;;;;;5078746;28;20506;-50
2021/04/18 09:55:10;;;;;;;8.40;6.65;;;14.40;95.90;;;;;;5092042;28;20042;-55
2021/04/18 09:57:52;;;;;;;7.28;6.07;;;14.30;95.40;;;;;;5092166;28;20067;-52
2021/04/18 10:00:31;;;;;;;9.00;7.38;;;14.30;95.00;;;;;;5075729;28;20112;-53
2021/04/18 10:03:13;;;;;;;9.45;7.85;;;14.50;93.00;;;;;;5068112;28;20070;-52
2021/04/18 10:05:45;;;;;;;7.55;6.68;;;14.60;93.80;;;;;;5070407;28;20484;-55
2021/04/18 10:08:21;;;;;;;7.40;5.97;;;14.80;94.00;;;;;;5070773;28;20048;-53
2021/04/18 10:10:47;;;;;;;;;;;15.00;92.70;;;;;;5072278;28;20025;-55
2021/04/18 10:13:13;;;;;;;7.53;6.13;;;15.30;91.50;;;;;;5070527;28;19909;-55
2021/04/18 10:16:06;;;;;;;8.25;5.88;;;15.50;93.10;;;;;;5071502;28;20082;-54
2021/04/18 10:18:32;;;;;;;8.85;6.25;;;15.50;90.50;;;;;;5069807;28;20041;-54
2021/04/18 10:21:15;;;;;;;7.68;5.88;;;15.60;93.20;;;;;;5071534;28;20048;-53
2021/04/18 10:23:40;;;;;;;8.77;6.47;;;15.40;91.40;;;;;;5070501;28;20048;-50
2021/04/18 10:26:08;;;;;;;7.00;6.30;;;15.30;93.00;;;;;;5077571;28;20035;-53
2021/04/18 10:28:33;;;;;;;8.32;6.82;;;15.40;92.60;;;;;;5091821;28;20062;-55
2021/04/18 10:30:59;;;;;;;9.10;8.13;;;15.40;92.20;;;;;;5091619;28;20028;-54
2021/04/18 10:33:24;;;;;;;8.35;6.70;;;15.60;92.10;;;;;;5091229;28;20024;-51
2021/04/18 10:35:54;;;;;;;10.15;7.60;;;15.70;91.40;;;;;;5091520;28;20031;-50
2021/04/18 10:38:20;;;;;;;11.07;8.77;;;15.80;89.80;;;;;;5090773;28;20089;-53
2021/04/18 10:40:45;;;;;;;8.73;7.53;;;15.50;90.60;;;;;;5091413;28;20479;-53
2021/04/18 10:43:12;;;;;;;7.68;6.43;;;15.20;90.10;;;;;;5091625;28;20413;-50
2021/04/18 10:45:38;;;;;;;9.48;7.50;;;15.10;91.00;;;;;;5090101;28;20111;-52
2021/04/18 10:48:05;;;;;;;8.85;7.28;;;15.30;91.40;;;;;;5091264;28;20107;-55
2021/04/18 10:50:31;;;;;;;11.45;7.43;;;15.20;90.90;;;;;;5089651;28;20028;-53
2021/04/18 10:52:56;;;;;;;12.02;7.80;;;15.30;91.20;;;;;;5082774;28;20483;-51
2021/04/18 10:55:22;;;;;;;13.88;9.45;;;15.20;90.80;;;;;;5091216;28;20166;-52
2021/04/18 10:57:47;;;;;;;12.40;8.80;;;15.00;90.80;;;;;;5091544;28;20093;-49
2021/04/18 11:00:13;;;;;;;12.15;8.85;;;14.90;90.50;;;;;;5088459;28;20417;-55
2021/04/18 11:02:39;;;;;;;9.88;8.48;;;14.90;90.70;;;;;;5070885;28;20041;-53
2021/04/18 11:05:05;;;;;;;11.27;9.23;;;15.00;90.90;;;;;;5071238;28;20105;-53
2021/04/18 11:07:31;;;;;;;16.17;12.20;;;15.20;90.00;;;;;;5070235;28;20522;-50
2021/04/18 11:09:56;;;;;;;18.20;13.73;;;15.20;87.90;;;;;;5071288;28;20032;-52
2021/04/18 11:12:22;;;;;;;17.00;13.20;;;15.10;88.00;;;;;;5070983;28;20029;-54
2021/04/18 11:14:48;;;;;;;18.08;13.68;;;15.10;88.70;;;;;;5071256;28;20247;-52
2021/04/18 11:17:14;;;;;;;19.17;13.88;;;15.00;88.20;;;;;;5071038;28;20028;-52
2021/04/18 11:19:40;;;;;;;21.77;16.95;;;15.10;88.40;;;;;;5069758;28;20100;-50
2021/04/18 11:22:05;;;;;;;18.95;14.50;;;14.90;86.70;;;;;;5071047;28;20543;-52
2021/04/18 11:24:31;;;;;;;22.02;15.63;;;14.90;87.60;;;;;;5069974;28;20055;-52
2021/04/18 11:26:56;;;;;;;23.25;16.08;;;14.90;87.50;;;;;;5071072;28;20103;-48
2021/04/18 11:29:22;;;;;;;15.63;13.73;;;14.90;87.10;;;;;;5070931;28;20063;-55
2021/04/18 11:31:48;;;;;;;26.05;17.38;;;15.00;86.90;;;;;;5070793;28;20060;-52
2021/04/18 11:34:14;;;;;;;18.35;15.95;;;14.90;87.30;;;;;;5070771;28;20029;-53
2021/04/18 11:36:39;;;;;;;16.02;12.23;;;14.90;87.50;;;;;;5070909;28;20074;-51
2021/04/18 11:39:05;;;;;;;18.15;13.52;;;15.20;87.60;;;;;;5070061;28;20068;-52
2021/04/18 11:41:35;;;;;;;22.38;15.30;;;15.30;87.70;;;;;;5070801;28;20035;-54
2021/04/18 11:44:02;;;;;;;20.00;15.07;;;15.60;86.00;;;;;;5072848;28;20028;-55
2021/04/18 11:46:28;;;;;;;16.92;14.27;;;15.60;85.40;;;;;;5074171;28;20511;-53
2021/04/18 11:48:54;;;;;;;22.95;16.58;;;15.50;84.90;;;;;;5074361;28;20090;-54
2021/04/18 11:51:20;;;;;;;27.50;19.92;;;15.40;84.90;;;;;;5081688;28;20119;-52
2021/04/18 11:53:46;;;;;;;25.10;17.38;;;15.20;84.20;;;;;;5093479;28;20103;-53
2021/04/18 11:56:11;;;;;;;23.15;18.20;;;15.10;84.70;;;;;;5094591;28;20036;-51
2021/04/18 11:58:37;;;;;;;27.70;21.17;;;15.10;85.10;;;;;;5094418;28;20111;-52
2021/04/18 12:01:03;;;;;;;26.17;19.25;;;15.10;84.80;;;;;;5084977;28;20020;-53
2021/04/18 12:03:29;;;;;;;24.17;16.77;;;15.00;84.10;;;;;;5072664;28;20094;-51
2021/04/18 12:05:56;;;;;;;27.98;19.90;;;14.90;85.40;;;;;;5074272;28;20020;-52
2021/04/18 12:08:22;;;;;;;24.33;19.13;;;14.70;84.60;;;;;;5073344;28;20112;-50
2021/04/18 12:10:48;;;;;;;29.92;21.92;;;14.60;86.00;;;;;;5074017;28;20124;-50
2021/04/18 12:13:14;;;;;;;27.75;19.83;;;14.40;86.00;;;;;;5073973;28;20575;-54
2021/04/18 12:15:39;;;;;;;28.23;19.75;;;14.10;87.80;;;;;;5066169;28;20028;-51
2021/04/18 12:18:05;;;;;;;34.28;22.60;;;13.90;89.00;;;;;;5069243;28;20100;-53
2021/04/18 12:20:31;;;;;;;34.38;23.38;;;13.70;90.20;;;;;;5073494;28;20180;-53
2021/04/18 12:22:56;;;;;;;37.33;24.55;;;13.40;90.60;;;;;;5072568;28;20056;-51
2021/04/18 12:25:22;;;;;;;36.00;25.88;;;13.20;91.60;;;;;;5073817;28;20380;-49
2021/04/18 12:27:47;;;;;;;26.02;20.15;;;12.90;92.40;;;;;;5073477;28;20017;-52
2021/04/18 12:30:14;;;;;;;33.80;21.73;;;12.80;92.90;;;;;;5073574;28;20026;-52
2021/04/18 12:32:42;;;;;;;33.90;23.20;;;12.70;93.50;;;;;;5073305;28;20070;-50
2021/04/18 12:35:08;;;;;;;37.78;26.52;;;12.60;94.10;;;;;;5073565;28;20502;-54
2021/04/18 12:37:33;;;;;;;39.15;26.00;;;12.50;95.00;;;;;;5072356;28;20112;-54
2021/04/18 12:39:59;;;;;;;35.90;24.40;;;12.50;95.50;;;;;;5073388;28;20535;-51